Résultats

Cyclo Ventoux Sud - 64KM. Édition 2022.

64 Km
11/09/2022 à 09:00:00 - Mallemort-du-Comtat (84)
96 arrivant(e)s.


 
Les autres classements de cet évènement

 




Place▲ Temps Dossard Nom Prenom Categ #Categ Sexe #Sexe ClubVit Moy Diplôme Photo Partager
1 01:40:18 751 DURBESSON JULIEN M1 1 M 1 50.00
2 01:40:29 658 MANDERON PASCAL M2 1 M 2 50.00
3 01:40:32 572 DESJARDINS JULIEN M2 2 M 3 50.00
4 01:40:32 692 POUCHOL FABIEN M2 3 M 4 50.00
5 01:40:34 708 RUSSO FLORIAN M1 2 M 5 50.00
6 01:40:36 725 TROMEL JEROME M2 4 M 6 50.00
7 01:40:42 706 ROCES DYLAN M1 3 M 7 50.00
8 01:40:45 734 ZAMAGNA VINCENZO M1 4 M 8 50.00
9 01:40:47 714 SEIGNEURIN JULIEN M2 5 M 9 50.00
10 01:40:51 710 SALVI NICOLAS M1 5 M 10 49.00
11 01:40:53 665 MELLET FLORIAN M3 1 M 11 49.00
12 01:40:55 556 COLAS TOM M3 2 M 12 49.00
13 01:40:58 517 BARBINI ROMAIN M1 6 M 13 49.00
14 01:41:00 607 GILLES NOAH M1 7 M 14 49.00
15 01:41:09 649 LIGNON ROMAIN M2 6 M 15 49.00
16 01:41:12 598 GAUTHIER REMY M2 7 M 16 49.00
17 01:41:13 554 CLARIOT SIMON M2 8 M 17 49.00
18 01:41:15 630 LACROUX FABIEN M2 9 M 18 49.00
19 01:41:20 737 LEPEURIEN PHILIPPE M5 1 M 19 49.00
20 01:41:21 678 PANSIER JULIAN M1 8 M 20 49.00
21 01:41:28 748 RICO TEDDY M1 9 M 21 49.00
22 01:41:30 643 LECLERE TEDDY M2 10 M 22 49.00
23 01:41:35 730 VITTORI GUILLAUME M2 11 M 23 49.00
24 01:41:35 731 VOLET FABIEN M3 3 M 24 49.00
25 01:41:42 633 LAIGLE BENJAMIN M2 12 M 25 49.00
26 01:41:44 750 BRUSSEE PAUL M2 13 M 26 49.00
27 01:41:45 683 PERRILLAT-BOITEUX FELIX M2 14 M 27 49.00
28 01:41:46 685 PHILIPPE LOIC M3 4 M 28 49.00
29 01:41:50 539 BOUGOUIN JEAN-CLAUDE M5 2 M 29 49.00
30 01:41:58 557 COLIN EDDY M3 5 M 30 49.00
31 01:42:04 593 GAMET ALEXANDRE M2 15 M 31 49.00
32 01:42:08 613 HERAUD DIDIER M6 1 M 32 49.00
33 01:42:14 669 MICHEL JEAN-CLAUDE M5 3 M 33 49.00
34 01:42:14 733 WEISLINGER EMMANUEL M2 16 M 34 49.00
35 01:42:17 762 VALETTE VINCENT M3 6 M 35 49.00
36 01:42:18 617 HOURTAL SEBASTIEN M3 7 M 36 49.00
37 01:42:19 726 TROTTIER MARC M1 10 M 37 49.00
38 01:42:25 508 ANSILLON DAMIEN M3 8 M 38 49.00
39 01:42:32 542 BREA-GONZALEZ GREGORY M2 17 M 39 49.00
40 01:42:33 577 DURAND THOMAS M2 18 M 40 49.00
41 01:42:36 671 MORRA CAMILLE M2 19 M 41 49.00
42 01:42:42 758 PERROUX DAVID M4 1 M 42 49.00
43 01:43:01 663 MARTY GAEL M2 20 M 43 48.00
44 01:43:13 584 FABREGOULE GEOFFREY M1 11 M 44 48.00
45 01:43:14 738 DELPECH LUDOVIC M1 12 M 45 48.00
46 01:43:15 525 BERGERON FABRICE M2 21 M 46 48.00
47 01:43:21 675 NENZI JACQUES M4 2 M 47 48.00
48 01:43:25 581 EICHSTADT MAXIME M2 22 M 48 48.00
49 01:43:26 741 GUIGON JULES M1 13 M 49 48.00
50 01:43:27 742 VERDIER SEBASTIEN M3 9 M 50 48.00
51 01:43:45 580 DUVIVIER JEROME M3 10 M 51 48.00
52 01:43:53 573 DESNOYERS MAXIME M1 14 M 52 48.00
53 01:44:01 596 GAUDION THOMAS M3 11 M 53 48.00
54 01:44:35 501 AIGON SEBASTIEN M2 23 M 54 48.00
55 01:45:34 516 BARBAROUX PIERRE-ALAIN M2 24 M 55 47.00
56 01:46:09 582 EME DAVID M2 25 M 56 47.00
57 01:46:15 702 RIMOUX FABIEN M4 3 M 57 47.00
58 01:46:18 745 N:Anonyme 745 P:Anonyme 745 M5 4 M 58 47.00
59 01:46:39 550 CELERIER FRANCK M5 5 M 59 47.00
60 01:46:59 623 JEROME TURINI M4 4 M 60 47.00
61 01:46:59 639 LE-CHT'I SEB M3 12 M 61 47.00
62 01:47:04 674 NADAL BENJAMIN M2 26 M 62 47.00
63 01:47:22 759 DEL-SOCORRO THIERRY M3 13 M 63 46.00
64 01:47:35 592 GAMBA MATHIAS M1 15 M 64 46.00
65 01:47:36 740 GREINER JEAN-BAPTISTE M1 16 M 65 46.00
66 01:47:41 638 LE-CAROFF GUILLAUME M1 17 M 66 46.00
67 01:47:44 548 CAROSSI JEAN-SEBASTIEN M4 5 M 67 46.00
68 01:47:51 509 AOUIR SABRY M1 18 M 68 46.00
69 01:47:51 626 KORICHI FATIMA W3 1 F 1 46.00
70 01:47:52 566 DE-ZORDI ALEXANDRE M3 14 M 69 46.00
71 01:48:26 585 FAVELL ALAN M6 2 M 70 46.00
72 01:49:11 595 GASPARINI NICOLAS M3 15 M 71 46.00
73 01:49:24 574 DI-GIACOMO CHRISTIAN M4 6 M 72 46.00
74 01:49:57 506 ANRES BASTIEN M1 19 M 73 45.00
75 01:50:01 521 BEAUDEQUIN THIERRY M5 6 M 74 45.00
76 01:50:38 564 DE-CUYPER PASCAL M4 7 M 75 45.00
77 01:50:44 721 THOMAS WILFRIED M2 27 M 76 45.00
78 01:53:27 503 ALONSO STEPHAN M3 16 M 77 44.00
79 01:53:27 601 GENEVES ROLAND M5 7 M 78 44.00
80 01:53:31 612 GUZMAN THEO M1 20 M 79 44.00
81 01:53:35 522 BEAUMOND PHILIPPE M5 8 M 80 44.00
82 01:53:44 687 PIGEOT SEBASTIEN M3 17 M 81 44.00
83 01:54:01 755 LANTENOIS GEOFFREY M2 28 M 82 44.00
84 01:54:03 662 MARTORELL PASCAL M4 8 M 83 44.00
85 01:54:06 528 BERTRAND DIDIER M4 9 M 84 44.00
86 01:54:13 652 LORETTE CHRISTOPHE M6 3 M 85 44.00
87 01:54:25 720 TAITON YOAN M2 29 M 86 44.00
88 01:54:26 707 ROSSI ERIC M2 30 M 87 44.00
89 01:54:28 565 DE-LORENZI PHILIPPE M4 10 M 88 44.00
90 01:55:53 689 PONCET LAURA W1 1 F 2 43.00
91 01:56:58 698 REYMOND SACHA M1 21 M 89 43.00
92 01:57:01 690 PONCET STEPHANE M3 18 M 90 43.00
93 01:59:59 760 PELOQUIN PHILIPPE M3 19 M 91 42.00
94 02:09:47 526 BERGERON YOANN M3 20 M 92 38.00
95 02:18:25 679 PASCAL JULIEN M2 31 M 93 36.00
96 02:30:19 616 HOOLEHAN MATT M3 21 M 94 33.00